createdAt,value
2019-02-07T00:01:32.002Z,26.13
2019-02-07T00:03:59.381Z,25.68
2019-02-07T00:06:26.704Z,25.88
2019-02-07T00:08:53.977Z,27.27
2019-02-07T00:11:21.222Z,29.57
2019-02-07T00:13:48.473Z,30.77
2019-02-07T00:16:16.151Z,27.57
2019-02-07T00:18:43.395Z,28.43
2019-02-07T00:21:10.757Z,26.10
2019-02-07T00:23:38.013Z,28.27
2019-02-07T00:26:05.412Z,25.97
2019-02-07T00:28:32.794Z,25.50
2019-02-07T00:31:00.050Z,26.00
2019-02-07T00:33:27.520Z,26.30
2019-02-07T00:35:55.088Z,26.20
2019-02-07T00:38:22.695Z,27.00
2019-02-07T00:40:50.153Z,26.17
2019-02-07T00:43:17.390Z,29.20
2019-02-07T00:45:44.651Z,26.30
2019-02-07T00:48:11.920Z,26.80
2019-02-07T00:50:39.255Z,27.35
2019-02-07T00:53:06.849Z,26.57
2019-02-07T00:55:34.198Z,25.15
2019-02-07T00:58:01.570Z,26.55
2019-02-07T01:00:28.990Z,24.32
2019-02-07T01:02:56.334Z,26.50
2019-02-07T01:05:23.990Z,28.07
2019-02-07T01:07:51.718Z,28.12
2019-02-07T01:10:21.762Z,24.15
2019-02-07T01:12:49.346Z,26.07
2019-02-07T01:15:17.023Z,27.58
2019-02-07T01:17:44.338Z,28.77
2019-02-07T01:20:13.024Z,25.92
2019-02-07T01:22:40.497Z,24.63
2019-02-07T01:25:10.285Z,29.45
2019-02-07T01:27:37.586Z,30.75
2019-02-07T01:30:06.988Z,27.07
2019-02-07T01:32:34.321Z,26.68
2019-02-07T01:35:01.715Z,29.05
2019-02-07T01:37:29.088Z,30.10
2019-02-07T01:39:56.407Z,28.05
2019-02-07T01:42:23.703Z,28.17
2019-02-07T01:44:50.953Z,28.80
2019-02-07T01:47:18.275Z,30.27
2019-02-07T01:49:45.640Z,32.35
2019-02-07T01:52:12.873Z,30.82
2019-02-07T01:54:40.340Z,31.17
2019-02-07T01:57:07.701Z,31.87
2019-02-07T01:59:35.078Z,32.88
2019-02-07T02:02:02.836Z,32.40
2019-02-07T02:04:30.073Z,32.80
2019-02-07T02:06:57.447Z,33.35
2019-02-07T02:09:24.734Z,29.92
2019-02-07T02:11:52.110Z,31.20
2019-02-07T02:14:19.502Z,34.23
2019-02-07T02:16:46.770Z,30.45
2019-02-07T02:19:14.783Z,35.30
2019-02-07T02:21:42.018Z,32.80
2019-02-07T02:24:09.374Z,33.38
2019-02-07T02:26:36.655Z,31.77
2019-02-07T02:29:04.181Z,34.90
2019-02-07T02:31:31.466Z,34.40
2019-02-07T02:33:59.028Z,31.68
2019-02-07T02:36:29.378Z,31.62
2019-02-07T02:38:56.697Z,33.78
2019-02-07T02:41:24.129Z,34.60
2019-02-07T02:43:51.490Z,33.08
2019-02-07T02:46:19.150Z,34.08
2019-02-07T02:48:46.416Z,30.90
2019-02-07T02:51:13.870Z,32.85
2019-02-07T02:53:41.850Z,30.00
2019-02-07T02:56:09.204Z,34.13
2019-02-07T02:58:36.672Z,32.78
2019-02-07T03:01:21.437Z,30.43
2019-02-07T03:04:23.322Z,29.72
2019-02-07T03:07:08.735Z,33.13
2019-02-07T03:09:54.829Z,30.88
2019-02-07T03:12:44.204Z,32.00
2019-02-07T03:15:48.818Z,31.80
2019-02-07T03:18:26.094Z,31.75
2019-02-07T03:21:15.698Z,34.27
2019-02-07T03:23:54.794Z,36.17
2019-02-07T03:26:33.209Z,32.70
2019-02-07T03:29:18.967Z,36.75
2019-02-07T03:32:08.481Z,36.85
2019-02-07T03:34:58.423Z,34.05
2019-02-07T03:37:49.491Z,34.73
2019-02-07T03:40:48.705Z,32.95
2019-02-07T03:43:47.486Z,36.65
2019-02-07T03:46:28.209Z,38.65
2019-02-07T03:49:18.210Z,34.95
2019-02-07T03:52:10.136Z,39.13
2019-02-07T03:55:05.438Z,37.15
2019-02-07T03:57:58.788Z,35.88
2019-02-07T04:00:45.755Z,39.60
2019-02-07T04:03:36.307Z,55.65
2019-02-07T04:06:23.325Z,37.25
2019-02-07T04:09:03.830Z,40.03
2019-02-07T04:15:11.251Z,38.00
2019-02-07T04:18:07.270Z,37.83
2019-02-07T04:20:52.034Z,40.28
2019-02-07T04:23:36.306Z,36.45
2019-02-07T04:26:19.347Z,37.30
2019-02-07T04:28:52.670Z,35.85
2019-02-07T04:31:32.594Z,38.50
2019-02-07T04:34:37.426Z,38.42
2019-02-07T04:37:39.361Z,38.10
2019-02-07T04:40:33.413Z,33.25
2019-02-07T04:43:29.364Z,34.43
2019-02-07T04:46:26.393Z,34.40
2019-02-07T04:48:57.151Z,32.35
2019-02-07T04:51:39.121Z,33.58
2019-02-07T04:54:28.794Z,37.88
2019-02-07T04:57:03.841Z,32.00
2019-02-07T04:59:56.782Z,36.50
2019-02-07T05:02:42.069Z,36.48
2019-02-07T05:05:26.406Z,35.85
2019-02-07T05:08:12.082Z,37.73
2019-02-07T05:11:14.337Z,36.23
2019-02-07T05:13:54.995Z,36.05
2019-02-07T05:16:43.738Z,57.73
2019-02-07T05:19:29.219Z,34.88
2019-02-07T05:22:14.849Z,31.50
2019-02-07T05:25:10.649Z,35.63
2019-02-07T05:27:48.218Z,35.85
2019-02-07T05:30:44.155Z,37.58
2019-02-07T05:33:42.755Z,36.33
2019-02-07T05:36:32.857Z,33.42
2019-02-07T05:39:07.538Z,35.40
2019-02-07T05:41:51.032Z,38.28
2019-02-07T05:44:27.051Z,36.45
2019-02-07T05:47:12.508Z,35.38
2019-02-07T05:50:14.236Z,37.25
2019-02-07T05:52:59.861Z,33.35
2019-02-07T05:55:52.773Z,35.65
2019-02-07T05:58:51.779Z,35.65
2019-02-07T06:01:38.654Z,42.38
2019-02-07T06:04:23.787Z,37.73
2019-02-07T06:06:59.208Z,38.20
2019-02-07T06:09:58.694Z,38.90
2019-02-07T06:12:48.003Z,37.23
2019-02-07T06:15:31.473Z,35.00
2019-02-07T06:18:07.287Z,35.50
2019-02-07T06:20:51.649Z,77.92
2019-02-07T06:23:37.731Z,59.20
2019-02-07T06:26:20.934Z,41.20
2019-02-07T06:29:13.302Z,32.93
2019-02-07T06:32:09.045Z,45.35
2019-02-07T06:34:54.077Z,34.80
2019-02-07T06:37:42.801Z,38.33
2019-02-07T06:40:30.139Z,33.63
2019-02-07T06:43:12.721Z,37.60
2019-02-07T06:46:06.163Z,32.60
2019-02-07T06:49:10.912Z,31.37
2019-02-07T06:51:50.714Z,43.87
2019-02-07T06:54:37.640Z,44.23
2019-02-07T06:57:36.916Z,39.25
2019-02-07T07:00:41.314Z,43.63
2019-02-07T07:03:46.068Z,64.72
2019-02-07T07:06:38.842Z,39.85
2019-02-07T07:09:25.961Z,41.30
2019-02-07T07:12:16.203Z,30.27
2019-02-07T07:14:55.785Z,33.60
2019-02-07T07:17:42.890Z,44.45
2019-02-07T07:20:23.982Z,51.50
2019-02-07T07:23:25.929Z,42.45
2019-02-07T07:26:18.574Z,37.08
2019-02-07T07:29:14.454Z,37.17
2019-02-07T07:31:53.641Z,35.38
2019-02-07T07:34:49.335Z,35.55
2019-02-07T07:37:34.889Z,32.28
2019-02-07T07:40:23.406Z,31.25
2019-02-07T07:43:12.254Z,29.98
2019-02-07T07:45:59.244Z,30.68
2019-02-07T07:48:52.339Z,30.20
2019-02-07T07:51:38.233Z,32.73
2019-02-07T07:54:23.994Z,31.05
2019-02-07T07:57:11.954Z,31.73
2019-02-07T07:59:50.723Z,31.87
2019-02-07T08:02:50.114Z,35.65
2019-02-07T08:05:28.369Z,41.00
2019-02-07T08:08:18.017Z,32.20
2019-02-07T08:11:06.936Z,60.52
2019-02-07T08:14:02.393Z,46.58
2019-02-07T08:16:42.981Z,34.05
2019-02-07T08:19:39.337Z,33.53
2019-02-07T08:22:39.942Z,39.25
2019-02-07T08:25:26.158Z,41.10
2019-02-07T08:28:12.037Z,34.47
2019-02-07T08:30:48.657Z,33.78
2019-02-07T08:33:34.365Z,31.17
2019-02-07T08:36:20.028Z,36.77
2019-02-07T08:39:05.778Z,43.48
2019-02-07T08:42:07.582Z,34.43
2019-02-07T08:45:09.986Z,28.20
2019-02-07T08:48:05.673Z,31.30
2019-02-07T08:50:53.022Z,31.23
2019-02-07T08:53:43.192Z,36.35
2019-02-07T08:56:28.829Z,42.60
2019-02-07T08:59:11.866Z,32.95
2019-02-07T09:02:05.047Z,34.73
2019-02-07T09:04:57.945Z,29.30
2019-02-07T09:07:53.853Z,37.37
2019-02-07T09:10:52.745Z,33.90
2019-02-07T09:13:45.685Z,33.80
2019-02-07T09:16:22.238Z,34.00
2019-02-07T09:19:03.485Z,37.00
2019-02-07T09:21:48.165Z,38.30
2019-02-07T09:24:37.921Z,40.73
2019-02-07T09:27:36.904Z,40.63
2019-02-07T09:30:24.631Z,40.40
2019-02-07T09:33:22.826Z,40.20
2019-02-07T09:36:14.334Z,40.08
2019-02-07T09:39:03.891Z,35.05
2019-02-07T09:41:43.954Z,37.90
2019-02-07T09:44:27.741Z,33.67
2019-02-07T09:47:13.509Z,34.70
2019-02-07T09:49:52.010Z,37.50
2019-02-07T09:52:41.946Z,40.87
2019-02-07T09:55:45.013Z,35.37
2019-02-07T09:58:25.426Z,34.13
2019-02-07T10:01:10.491Z,33.07
2019-02-07T10:04:09.542Z,40.83
2019-02-07T10:06:47.782Z,36.80
2019-02-07T10:09:33.118Z,33.00
2019-02-07T10:12:23.291Z,35.90
2019-02-07T10:15:10.266Z,37.23
2019-02-07T10:18:04.103Z,40.75
2019-02-07T10:20:49.528Z,38.87
2019-02-07T10:23:32.373Z,37.80
2019-02-07T10:26:19.209Z,33.27
2019-02-07T10:29:08.910Z,43.30
2019-02-07T10:31:56.765Z,50.07
2019-02-07T10:34:36.634Z,35.83
2019-02-07T10:37:26.274Z,35.50
2019-02-07T10:40:15.734Z,39.57
2019-02-07T10:43:17.646Z,32.20
2019-02-07T10:46:02.002Z,44.53
2019-02-07T10:48:44.838Z,34.60
2019-02-07T10:51:34.398Z,35.77
2019-02-07T10:54:21.309Z,31.80
2019-02-07T10:57:06.003Z,35.23
2019-02-07T10:59:56.455Z,43.47
2019-02-07T11:02:46.242Z,36.80
2019-02-07T11:05:31.996Z,38.60
2019-02-07T11:08:21.580Z,35.20
2019-02-07T11:11:14.628Z,37.63
2019-02-07T11:14:05.758Z,35.37
2019-02-07T11:16:45.194Z,36.03
2019-02-07T11:19:30.495Z,34.90
2019-02-07T11:22:22.874Z,34.83
2019-02-07T11:25:11.889Z,36.33
2019-02-07T11:27:57.705Z,33.73
2019-02-07T11:30:50.834Z,36.13
2019-02-07T11:33:29.438Z,36.93
2019-02-07T11:36:18.935Z,39.43
2019-02-07T11:39:01.322Z,36.90
2019-02-07T11:41:46.583Z,51.00
2019-02-07T11:44:31.858Z,42.90
2019-02-07T11:47:17.218Z,37.60
2019-02-07T11:50:12.622Z,33.23
2019-02-07T11:53:14.673Z,36.90
2019-02-07T11:56:00.119Z,34.50
2019-02-07T11:58:49.705Z,34.80
2019-02-07T12:01:35.306Z,37.23
2019-02-07T12:04:16.046Z,34.63
2019-02-07T12:07:05.906Z,34.93
2019-02-07T12:09:52.418Z,37.10
2019-02-07T12:12:44.859Z,35.30
2019-02-07T12:15:40.661Z,34.40
2019-02-07T12:18:39.655Z,33.20
2019-02-07T12:21:25.373Z,32.90
2019-02-07T12:24:14.735Z,33.97
2019-02-07T12:27:10.588Z,34.43
2019-02-07T12:29:45.478Z,33.43
2019-02-07T12:32:30.978Z,33.93
2019-02-07T12:35:08.961Z,34.73
2019-02-07T12:37:50.867Z,35.20
2019-02-07T12:40:49.898Z,35.03
2019-02-07T12:43:35.494Z,34.47
2019-02-07T12:46:22.329Z,36.30
2019-02-07T12:49:11.722Z,35.60
2019-02-07T12:51:58.584Z,33.77
2019-02-07T12:54:37.781Z,35.03
2019-02-07T12:57:23.741Z,35.30
2019-02-07T13:00:13.645Z,38.93
2019-02-07T13:02:58.905Z,40.40
2019-02-07T13:05:51.662Z,50.57
2019-02-07T13:08:31.602Z,53.43
2019-02-07T13:11:17.277Z,50.33
2019-02-07T13:14:04.170Z,61.93
2019-02-07T13:16:51.168Z,47.50
2019-02-07T13:19:41.148Z,53.50
2019-02-07T13:22:27.197Z,50.03
2019-02-07T13:25:17.033Z,42.50
2019-02-07T13:27:57.874Z,41.77
2019-02-07T13:30:51.398Z,52.80
2019-02-07T13:33:26.160Z,45.00
2019-02-07T13:36:11.782Z,40.27
2019-02-07T13:38:58.747Z,48.07
2019-02-07T13:42:00.774Z,39.77
2019-02-07T13:44:53.709Z,46.67
2019-02-07T13:47:40.553Z,41.33
2019-02-07T13:50:21.980Z,46.73
2019-02-07T13:53:03.432Z,44.83
2019-02-07T13:55:48.850Z,45.00
2019-02-07T13:58:25.790Z,42.77
2019-02-07T14:01:18.414Z,40.63
2019-02-07T14:03:59.923Z,40.83
2019-02-07T14:06:45.237Z,45.70
2019-02-07T14:09:40.983Z,37.60
2019-02-07T14:12:28.159Z,40.00
2019-02-07T14:15:06.034Z,41.17
2019-02-07T14:18:11.193Z,39.63
2019-02-07T14:21:04.751Z,40.33
2019-02-07T14:24:06.994Z,40.20
2019-02-07T14:26:58.368Z,42.17
2019-02-07T14:29:51.128Z,42.67
2019-02-07T14:32:25.630Z,41.60
2019-02-07T14:35:15.066Z,42.40
2019-02-07T14:38:01.985Z,40.47
2019-02-07T14:40:49.010Z,44.70
2019-02-07T14:43:34.773Z,37.60
2019-02-07T14:46:24.186Z,36.80
2019-02-07T14:48:51.565Z,40.23
2019-02-07T14:51:19.063Z,40.97
2019-02-07T14:53:46.322Z,44.13
2019-02-07T14:56:13.578Z,48.17
2019-02-07T14:58:40.875Z,46.17
2019-02-07T15:01:08.681Z,39.60
2019-02-07T15:03:35.897Z,40.50
2019-02-07T15:06:03.241Z,40.47
2019-02-07T15:08:30.594Z,41.10
2019-02-07T15:10:57.958Z,42.17
2019-02-07T15:13:25.209Z,38.63
2019-02-07T15:15:52.485Z,38.30
2019-02-07T15:18:20.219Z,37.90
2019-02-07T15:20:47.454Z,37.93
2019-02-07T15:23:14.673Z,35.33
2019-02-07T15:25:42.126Z,34.77
2019-02-07T15:28:09.541Z,39.07
2019-02-07T15:30:36.829Z,36.33
2019-02-07T15:33:04.274Z,36.40
2019-02-07T15:35:34.235Z,35.53
2019-02-07T15:38:01.527Z,35.67
2019-02-07T15:40:28.743Z,36.67
2019-02-07T15:42:56.492Z,36.00
2019-02-07T15:45:24.766Z,35.43
2019-02-07T15:47:52.134Z,37.03
2019-02-07T15:50:37.764Z,35.50
2019-02-07T15:53:02.065Z,36.63
2019-02-07T15:55:29.305Z,37.23
2019-02-07T15:57:57.025Z,37.47
2019-02-07T16:00:47.104Z,36.50
2019-02-07T16:03:36.389Z,39.57
2019-02-07T16:06:06.295Z,40.37
2019-02-07T16:08:33.410Z,37.67
2019-02-07T16:11:00.649Z,36.00
2019-02-07T16:13:27.866Z,38.90
2019-02-07T16:15:55.242Z,38.77
2019-02-07T16:18:22.574Z,40.30
2019-02-07T16:20:49.855Z,40.47
2019-02-07T16:23:17.221Z,41.23
2019-02-07T16:25:44.453Z,39.23
2019-02-07T16:28:11.698Z,41.03
2019-02-07T16:30:39.357Z,40.23
2019-02-07T16:33:07.069Z,41.47
2019-02-07T16:35:34.886Z,43.27
2019-02-07T16:38:02.129Z,39.30
2019-02-07T16:40:29.634Z,42.33
2019-02-07T16:42:57.142Z,41.77
2019-02-07T16:45:25.421Z,40.97
2019-02-07T16:47:53.049Z,40.80
2019-02-07T16:50:20.884Z,44.50
2019-02-07T16:52:48.264Z,41.13
2019-02-07T16:55:15.746Z,42.33
2019-02-07T16:57:43.082Z,41.17
2019-02-07T17:00:15.982Z,42.70
2019-02-07T17:02:43.502Z,39.97
2019-02-07T17:05:12.553Z,38.87
2019-02-07T17:07:39.910Z,40.15
2019-02-07T17:10:09.247Z,41.27
2019-02-07T17:12:36.637Z,42.27
2019-02-07T17:15:06.611Z,40.90
2019-02-07T17:17:33.978Z,42.80
2019-02-07T17:20:01.621Z,40.80
2019-02-07T17:22:29.295Z,39.60
2019-02-07T17:24:56.741Z,40.45
2019-02-07T17:27:24.123Z,41.60
2019-02-07T17:29:53.420Z,40.58
2019-02-07T17:32:20.907Z,38.40
2019-02-07T17:34:48.240Z,42.60
2019-02-07T17:37:15.715Z,41.60
2019-02-07T17:39:43.537Z,41.60
2019-02-07T17:42:10.931Z,41.28
2019-02-07T17:44:38.346Z,42.83
2019-02-07T17:47:05.742Z,45.45
2019-02-07T17:49:33.246Z,41.58
2019-02-07T17:52:00.602Z,44.70
2019-02-07T17:54:27.977Z,45.60
2019-02-07T17:56:55.843Z,45.67
2019-02-07T17:59:23.329Z,42.43
2019-02-07T18:01:50.587Z,43.17
2019-02-07T18:04:17.979Z,42.62
2019-02-07T18:06:45.422Z,44.30
2019-02-07T18:09:12.774Z,41.70
2019-02-07T18:11:40.207Z,44.75
2019-02-07T18:14:07.578Z,45.50
2019-02-07T18:16:35.130Z,49.42
2019-02-07T18:19:02.619Z,55.80
2019-02-07T18:21:34.239Z,58.17
2019-02-07T18:24:01.254Z,57.80
2019-02-07T18:26:28.623Z,52.83
2019-02-07T18:28:55.910Z,51.73
2019-02-07T18:31:23.505Z,47.40
2019-02-07T18:33:51.281Z,48.05
2019-02-07T18:36:18.677Z,45.40
2019-02-07T18:38:45.962Z,50.08
2019-02-07T18:41:13.322Z,48.52
2019-02-07T18:43:40.734Z,53.25
2019-02-07T18:46:08.157Z,49.07
2019-02-07T18:48:35.634Z,50.73
2019-02-07T18:51:03.522Z,52.93
2019-02-07T18:53:30.959Z,55.10
2019-02-07T18:55:58.359Z,53.97
2019-02-07T18:58:25.895Z,51.97
2019-02-07T19:00:53.476Z,53.80
2019-02-07T19:03:20.831Z,60.83
2019-02-07T19:05:48.093Z,59.40
2019-02-07T19:08:15.521Z,57.47
2019-02-07T19:10:42.970Z,57.80
2019-02-07T19:13:10.554Z,57.93
2019-02-07T19:16:08.638Z,56.33
2019-02-07T19:18:36.425Z,54.27
2019-02-07T19:21:04.501Z,58.40
2019-02-07T19:23:31.868Z,58.70
2019-02-07T19:25:59.198Z,58.30
2019-02-07T19:28:26.603Z,56.40
2019-02-07T19:30:54.051Z,55.20
2019-02-07T19:33:22.549Z,57.23
2019-02-07T19:35:50.078Z,57.80
2019-02-07T19:38:17.927Z,58.07
2019-02-07T19:40:45.174Z,60.60
2019-02-07T19:43:12.528Z,55.90
2019-02-07T19:45:39.878Z,57.73
2019-02-07T19:48:07.562Z,55.97
2019-02-07T19:50:35.002Z,53.10
2019-02-07T19:53:02.673Z,51.47
2019-02-07T19:55:30.117Z,54.30
2019-02-07T19:57:57.693Z,50.20
2019-02-07T20:00:27.226Z,52.30
2019-02-07T20:02:55.558Z,53.50
2019-02-07T20:05:23.468Z,56.23
2019-02-07T20:07:51.134Z,59.77
2019-02-07T20:10:20.027Z,55.00
2019-02-07T20:12:47.731Z,58.50
2019-02-07T20:15:36.281Z,56.23
2019-02-07T20:18:05.981Z,55.80
2019-02-07T20:20:33.352Z,52.63
2019-02-07T20:23:00.721Z,57.13
2019-02-07T20:25:28.432Z,52.70
2019-02-07T20:27:56.489Z,56.27
2019-02-07T20:30:29.063Z,56.00
2019-02-07T20:32:56.312Z,56.10
2019-02-07T20:35:23.792Z,53.23
2019-02-07T20:37:51.406Z,54.10
2019-02-07T20:40:21.047Z,51.47
2019-02-07T20:42:48.324Z,51.00
2019-02-07T20:45:17.901Z,51.57
2019-02-07T20:47:45.702Z,51.60
2019-02-07T20:50:15.725Z,53.70
2019-02-07T20:52:43.082Z,50.83
2019-02-07T20:55:10.579Z,52.07
2019-02-07T20:57:38.066Z,54.30
2019-02-07T21:00:08.942Z,56.27
2019-02-07T21:02:36.339Z,53.70
2019-02-07T21:05:04.926Z,53.60
2019-02-07T21:07:32.254Z,50.70
2019-02-07T21:09:59.653Z,50.27
2019-02-07T21:12:27.433Z,52.40
2019-02-07T21:14:54.784Z,49.77
2019-02-07T21:17:22.046Z,50.93
2019-02-07T21:19:49.510Z,49.73
2019-02-07T21:22:16.889Z,49.97
2019-02-07T21:24:44.298Z,51.00
2019-02-07T21:27:11.666Z,50.73
2019-02-07T21:29:39.157Z,48.87
2019-02-07T21:32:06.471Z,49.90
2019-02-07T21:34:34.014Z,50.17
2019-02-07T21:37:01.450Z,53.40
2019-02-07T21:39:28.813Z,51.97
2019-02-07T21:41:56.098Z,50.43
2019-02-07T21:44:23.654Z,52.37
2019-02-07T21:46:50.993Z,50.37
2019-02-07T21:49:18.349Z,51.03
2019-02-07T21:51:45.653Z,53.33
2019-02-07T21:54:13.023Z,51.80
2019-02-07T21:56:40.480Z,51.80
2019-02-07T21:59:07.901Z,50.87
2019-02-07T22:01:35.174Z,50.17
2019-02-07T22:04:02.771Z,49.83
2019-02-07T22:06:30.210Z,51.07
2019-02-07T22:08:57.693Z,52.37
2019-02-07T22:11:24.978Z,49.80
2019-02-07T22:13:52.262Z,54.33
2019-02-07T22:16:19.513Z,50.13
2019-02-07T22:18:46.882Z,52.77
2019-02-07T22:21:14.619Z,51.00
2019-02-07T22:23:41.944Z,51.50
2019-02-07T22:26:09.338Z,46.83
2019-02-07T22:28:36.706Z,48.43
2019-02-07T22:31:03.945Z,48.17
2019-02-07T22:33:31.390Z,47.70
2019-02-07T22:35:58.665Z,46.87
2019-02-07T22:38:25.996Z,47.20
2019-02-07T22:40:53.494Z,47.60
2019-02-07T22:43:20.746Z,46.33
2019-02-07T22:45:47.970Z,49.30
2019-02-07T22:48:15.501Z,47.60
2019-02-07T22:50:42.826Z,45.17
2019-02-07T22:53:10.089Z,50.07
2019-02-07T22:55:37.495Z,47.57
2019-02-07T22:58:07.167Z,45.90
2019-02-07T23:01:13.170Z,48.43
2019-02-07T23:03:48.469Z,49.63
2019-02-07T23:06:15.705Z,51.27
2019-02-07T23:08:43.397Z,53.20
2019-02-07T23:11:10.734Z,52.30
2019-02-07T23:13:38.042Z,50.23
2019-02-07T23:16:06.993Z,49.50
2019-02-07T23:18:34.551Z,54.90
2019-02-07T23:21:02.006Z,52.37
2019-02-07T23:23:29.266Z,54.50
2019-02-07T23:25:56.534Z,52.40
2019-02-07T23:28:23.826Z,49.20
2019-02-07T23:30:51.474Z,52.43
2019-02-07T23:33:18.726Z,54.23
2019-02-07T23:35:45.982Z,50.40
2019-02-07T23:38:13.329Z,52.83
2019-02-07T23:40:40.955Z,49.73
2019-02-07T23:43:08.909Z,50.33
2019-02-07T23:45:36.395Z,51.17
2019-02-07T23:48:04.456Z,51.17
2019-02-07T23:50:31.685Z,53.87
2019-02-07T23:52:59.153Z,55.63
2019-02-07T23:55:26.646Z,55.27
2019-02-07T23:57:54.409Z,54.87
